Naikai2 — JD2433 — position and weather

sailwx.info

Track history (hours):
 
Tides and Currents Weather Stations Pressure Air Temp Water Temp Dewpoint Dewpoint Depression Visibility Wind Speed Wind Dir Waves Ship Positions

Naikai2

Last reported at 2016-May-21 07:15 UTC. Time now 2016-May-24 09:52 UTC.
Position N 34°39' E 135°10'.

Length 28 m; draft 2.2 m.

Type: Other ship. MMSI: 431000283.

Date/timePositionNaut miles runAvg speedWind from/ knotsBaromVisibWave heightAir tempDewpointWater temp
2016-May-21 07:15N 34°39' E 135°10'912.4
2016-May-21 06:34N 34°31' E 135°06'1514.9
2016-May-21 05:34N 34°17' E 134°59'10 9.5
2016-May-21 04:33N 34°26' E 135°03'9 9.4
2016-May-21 03:34N 34°36' E 135°03'6 0.2
2016-May-19 23:08N 34°36' E 134°55'711.3
2016-May-19 22:33N 34°36' E 135°03'6 5.9
2016-May-19 21:33N 34°31' E 135°07'1211.5
2016-May-19 20:29N 34°20' E 135°01'8 8.9
2016-May-19 19:32N 34°11' E 135°00'1313.3
2016-May-19 18:34N 34°24' E 135°01'1514.6
2016-May-19 17:33N 34°37' E 135°09'2 0.0
2016-May-18 06:33N 34°39' E 135°10'5 5.2
2016-May-18 05:33N 34°38' E 135°16'9 8.9
2016-May-18 04:32N 34°34' E 135°26'5 5.7
2016-May-18 03:33N 34°33' E 135°19'3 3.1
2016-May-18 02:34N 34°35' E 135°23'2 2.1
2016-May-18 01:33N 34°33' E 135°24'4 4.4
2016-May-18 00:33N 34°34' E 135°19'9 9.1
2016-May-17 23:33N 34°39' E 135°10'0 0.0
2016-May-17 10:34N 34°39' E 135°10'1414.4
2016-May-17 09:33N 34°25' E 135°04'10 9.4
2016-May-17 08:30N 34°17' E 134°58'1313.4
2016-May-17 07:33N 34°29' E 135°04'8 8.0
2016-May-17 06:33N 34°36' E 135°02'5 0.2
2016-May-15 23:21N 34°36' E 134°56'810.0
2016-May-15 22:33N 34°35' E 135°05'6 5.9
2016-May-15 21:33N 34°29' E 135°06'1212.3
2016-May-15 20:33N 34°18' E 134°59'8 7.7
2016-May-15 19:31N 34°11' E 135°02'6 0.6
2016-May-15 09:33N 34°13' E 135°09'11 9.3
2016-May-15 08:22N 34°21' E 134°59'910.6
2016-May-15 07:33N 34°29' E 135°03'7 6.6
2016-May-15 06:33N 34°36' E 135°03'7 2.3
2016-May-15 03:32N 34°36' E 134°54'1312.7
2016-May-15 02:33N 34°38' E 135°10'2 0.0
2016-May-13 00:34N 34°39' E 135°11'5 0.3
2016-May-12 07:33N 34°35' E 135°08'15 7.6
2016-May-12 05:33N 34°21' E 134°59'1313.4
2016-May-12 04:33N 34°33' E 135°05'  
Track history (hours):
 
Tides and Currents Weather Stations Pressure Air Temp Water Temp Dewpoint Dewpoint Depression Visibility Wind Speed Wind Dir Waves Ship Positions

Naikai2

Last reported at 2016-May-21 07:15 UTC. Time now 2016-May-24 09:52 UTC.
Position N 34°39' E 135°10'.

Length 28 m; draft 2.2 m.

Type: Other ship. MMSI: 431000283.

Date/timePositionNaut miles runAvg speedWind from/ knotsBaromVisibWave heightAir tempDewpointWater temp
2016-May-21 07:15N 34°39' E 135°10'912.4
2016-May-21 06:34N 34°31' E 135°06'1514.9
2016-May-21 05:34N 34°17' E 134°59'10 9.5
2016-May-21 04:33N 34°26' E 135°03'9 9.4
2016-May-21 03:34N 34°36' E 135°03'6 0.2
2016-May-19 23:08N 34°36' E 134°55'711.3
2016-May-19 22:33N 34°36' E 135°03'6 5.9
2016-May-19 21:33N 34°31' E 135°07'1211.5
2016-May-19 20:29N 34°20' E 135°01'8 8.9
2016-May-19 19:32N 34°11' E 135°00'1313.3
2016-May-19 18:34N 34°24' E 135°01'1514.6
2016-May-19 17:33N 34°37' E 135°09'2 0.0
2016-May-18 06:33N 34°39' E 135°10'5 5.2
2016-May-18 05:33N 34°38' E 135°16'9 8.9
2016-May-18 04:32N 34°34' E 135°26'5 5.7
2016-May-18 03:33N 34°33' E 135°19'3 3.1
2016-May-18 02:34N 34°35' E 135°23'2 2.1
2016-May-18 01:33N 34°33' E 135°24'4 4.4
2016-May-18 00:33N 34°34' E 135°19'9 9.1
2016-May-17 23:33N 34°39' E 135°10'0 0.0
2016-May-17 10:34N 34°39' E 135°10'1414.4
2016-May-17 09:33N 34°25' E 135°04'10 9.4
2016-May-17 08:30N 34°17' E 134°58'1313.4
2016-May-17 07:33N 34°29' E 135°04'8 8.0
2016-May-17 06:33N 34°36' E 135°02'5 0.2
2016-May-15 23:21N 34°36' E 134°56'810.0
2016-May-15 22:33N 34°35' E 135°05'6 5.9
2016-May-15 21:33N 34°29' E 135°06'1212.3
2016-May-15 20:33N 34°18' E 134°59'8 7.7
2016-May-15 19:31N 34°11' E 135°02'6 0.6
2016-May-15 09:33N 34°13' E 135°09'11 9.3
2016-May-15 08:22N 34°21' E 134°59'910.6
2016-May-15 07:33N 34°29' E 135°03'7 6.6
2016-May-15 06:33N 34°36' E 135°03'7 2.3
2016-May-15 03:32N 34°36' E 134°54'1312.7
2016-May-15 02:33N 34°38' E 135°10'2 0.0
2016-May-13 00:34N 34°39' E 135°11'5 0.3
2016-May-12 07:33N 34°35' E 135°08'15 7.6
2016-May-12 05:33N 34°21' E 134°59'1313.4
2016-May-12 04:33N 34°33' E 135°05'  

Dump ship's entire track history